sensor_id;sensor_type;location;lat;lon;timestamp;temperature;humidity
7030;DHT22;3556;53.500;10.176;2022-07-06T00:00:33;14.70;99.90
7030;DHT22;3556;53.500;10.176;2022-07-06T00:02:59;14.60;99.90
7030;DHT22;3556;53.500;10.176;2022-07-06T00:05:25;14.60;99.90
7030;DHT22;3556;53.500;10.176;2022-07-06T00:07:51;14.60;99.90
7030;DHT22;3556;53.500;10.176;2022-07-06T00:10:16;14.50;99.90
7030;DHT22;3556;53.500;10.176;2022-07-06T00:12:42;14.50;99.90
7030;DHT22;3556;53.500;10.176;2022-07-06T00:15:08;14.50;99.90
7030;DHT22;3556;53.500;10.176;2022-07-06T00:17:34;14.50;99.90
7030;DHT22;3556;53.500;10.176;2022-07-06T00:19:59;14.50;99.90
7030;DHT22;3556;53.500;10.176;2022-07-06T00:22:25;14.50;99.90
7030;DHT22;3556;53.500;10.176;2022-07-06T00:24:51;14.50;99.90
7030;DHT22;3556;53.500;10.176;2022-07-06T00:27:17;14.50;99.90
7030;DHT22;3556;53.500;10.176;2022-07-06T00:29:42;14.40;99.90
7030;DHT22;3556;53.500;10.176;2022-07-06T00:32:10;14.40;99.90
7030;DHT22;3556;53.500;10.176;2022-07-06T00:34:37;14.40;99.90
7030;DHT22;3556;53.500;10.176;2022-07-06T00:37:05;14.40;99.90
7030;DHT22;3556;53.500;10.176;2022-07-06T00:39:32;14.40;99.90
7030;DHT22;3556;53.500;10.176;2022-07-06T00:41:58;14.40;99.90
7030;DHT22;3556;53.500;10.176;2022-07-06T00:44:23;14.40;99.90
7030;DHT22;3556;53.500;10.176;2022-07-06T00:46:49;14.40;99.90
7030;DHT22;3556;53.500;10.176;2022-07-06T00:49:15;14.40;99.90
7030;DHT22;3556;53.500;10.176;2022-07-06T00:51:59;14.40;99.90
7030;DHT22;3556;53.500;10.176;2022-07-06T00:54:27;14.40;99.90
7030;DHT22;3556;53.500;10.176;2022-07-06T00:56:55;14.40;99.90
7030;DHT22;3556;53.500;10.176;2022-07-06T00:59:22;14.30;99.90
7030;DHT22;3556;53.500;10.176;2022-07-06T01:01:48;14.40;99.90
7030;DHT22;3556;53.500;10.176;2022-07-06T01:04:14;14.30;99.90
7030;DHT22;3556;53.500;10.176;2022-07-06T01:06:39;14.30;99.90
7030;DHT22;3556;53.500;10.176;2022-07-06T01:09:06;14.30;99.90
7030;DHT22;3556;53.500;10.176;2022-07-06T01:11:32;14.30;99.90
7030;DHT22;3556;53.500;10.176;2022-07-06T01:14:00;14.30;99.90
7030;DHT22;3556;53.500;10.176;2022-07-06T01:16:25;14.30;99.90
7030;DHT22;3556;53.500;10.176;2022-07-06T01:18:51;14.30;99.90
7030;DHT22;3556;53.500;10.176;2022-07-06T01:21:17;14.20;99.90
7030;DHT22;3556;53.500;10.176;2022-07-06T01:23:44;14.30;99.90
7030;DHT22;3556;53.500;10.176;2022-07-06T01:26:13;14.30;99.90
7030;DHT22;3556;53.500;10.176;2022-07-06T01:28:40;14.20;99.90
7030;DHT22;3556;53.500;10.176;2022-07-06T01:31:20;14.20;99.90
7030;DHT22;3556;53.500;10.176;2022-07-06T01:33:46;14.20;99.90
7030;DHT22;3556;53.500;10.176;2022-07-06T01:36:13;14.20;99.90
7030;DHT22;3556;53.500;10.176;2022-07-06T01:38:49;14.30;99.90
7030;DHT22;3556;53.500;10.176;2022-07-06T01:41:16;14.20;99.90
7030;DHT22;3556;53.500;10.176;2022-07-06T01:43:42;14.20;99.90
7030;DHT22;3556;53.500;10.176;2022-07-06T01:46:08;14.20;99.90
7030;DHT22;3556;53.500;10.176;2022-07-06T01:48:33;14.20;99.90
7030;DHT22;3556;53.500;10.176;2022-07-06T01:50:59;14.30;99.90
7030;DHT22;3556;53.500;10.176;2022-07-06T01:53:25;14.30;99.90
7030;DHT22;3556;53.500;10.176;2022-07-06T01:55:50;14.30;99.90
7030;DHT22;3556;53.500;10.176;2022-07-06T01:58:16;14.30;99.90
7030;DHT22;3556;53.500;10.176;2022-07-06T02:00:42;14.30;99.90
7030;DHT22;3556;53.500;10.176;2022-07-06T02:03:07;14.30;99.90
7030;DHT22;3556;53.500;10.176;2022-07-06T02:05:33;14.30;99.90
7030;DHT22;3556;53.500;10.176;2022-07-06T02:07:58;14.20;99.90
7030;DHT22;3556;53.500;10.176;2022-07-06T02:10:24;14.20;99.90
7030;DHT22;3556;53.500;10.176;2022-07-06T02:12:50;14.20;99.90
7030;DHT22;3556;53.500;10.176;2022-07-06T02:15:15;14.30;99.90
7030;DHT22;3556;53.500;10.176;2022-07-06T02:17:41;14.30;99.90
7030;DHT22;3556;53.500;10.176;2022-07-06T02:20:07;14.30;99.90
7030;DHT22;3556;53.500;10.176;2022-07-06T02:22:33;14.30;99.90
7030;DHT22;3556;53.500;10.176;2022-07-06T02:24:59;14.20;99.90
7030;DHT22;3556;53.500;10.176;2022-07-06T02:27:25;14.20;99.90
7030;DHT22;3556;53.500;10.176;2022-07-06T02:29:50;14.30;99.90
7030;DHT22;3556;53.500;10.176;2022-07-06T02:32:16;14.30;99.90
7030;DHT22;3556;53.500;10.176;2022-07-06T02:34:42;14.30;99.90
7030;DHT22;3556;53.500;10.176;2022-07-06T02:37:08;14.30;99.90
7030;DHT22;3556;53.500;10.176;2022-07-06T02:39:33;14.30;99.90
7030;DHT22;3556;53.500;10.176;2022-07-06T02:41:59;14.30;99.90
7030;DHT22;3556;53.500;10.176;2022-07-06T02:44:25;14.30;99.90
7030;DHT22;3556;53.500;10.176;2022-07-06T02:46:51;14.30;99.90
7030;DHT22;3556;53.500;10.176;2022-07-06T02:49:16;14.30;99.90
7030;DHT22;3556;53.500;10.176;2022-07-06T02:51:42;14.20;99.90
7030;DHT22;3556;53.500;10.176;2022-07-06T02:54:07;14.20;99.90
7030;DHT22;3556;53.500;10.176;2022-07-06T02:56:33;14.20;99.90
7030;DHT22;3556;53.500;10.176;2022-07-06T02:58:59;14.30;99.90
7030;DHT22;3556;53.500;10.176;2022-07-06T03:01:25;14.30;99.90
7030;DHT22;3556;53.500;10.176;2022-07-06T03:03:50;14.30;99.90
7030;DHT22;3556;53.500;10.176;2022-07-06T03:06:16;14.30;99.90
7030;DHT22;3556;53.500;10.176;2022-07-06T03:08:41;14.30;99.90
7030;DHT22;3556;53.500;10.176;2022-07-06T03:11:07;14.30;99.90
7030;DHT22;3556;53.500;10.176;2022-07-06T03:13:33;14.30;99.90
7030;DHT22;3556;53.500;10.176;2022-07-06T03:15:58;14.30;99.90
7030;DHT22;3556;53.500;10.176;2022-07-06T03:18:24;14.30;99.90
7030;DHT22;3556;53.500;10.176;2022-07-06T03:20:50;14.30;99.90
7030;DHT22;3556;53.500;10.176;2022-07-06T03:23:15;14.30;99.90
7030;DHT22;3556;53.500;10.176;2022-07-06T03:25:41;14.30;99.90
7030;DHT22;3556;53.500;10.176;2022-07-06T03:28:06;14.30;99.90
7030;DHT22;3556;53.500;10.176;2022-07-06T03:30:32;14.30;99.90
7030;DHT22;3556;53.500;10.176;2022-07-06T03:32:58;14.30;99.90
7030;DHT22;3556;53.500;10.176;2022-07-06T03:35:23;14.30;99.90
7030;DHT22;3556;53.500;10.176;2022-07-06T03:37:49;14.30;99.90
7030;DHT22;3556;53.500;10.176;2022-07-06T03:40:14;14.30;99.90
7030;DHT22;3556;53.500;10.176;2022-07-06T03:42:40;14.30;99.90
7030;DHT22;3556;53.500;10.176;2022-07-06T03:45:06;14.30;99.90
7030;DHT22;3556;53.500;10.176;2022-07-06T03:47:32;14.30;99.90
7030;DHT22;3556;53.500;10.176;2022-07-06T03:49:58;14.30;99.90
7030;DHT22;3556;53.500;10.176;2022-07-06T03:52:24;14.30;99.90
7030;DHT22;3556;53.500;10.176;2022-07-06T03:54:49;14.30;99.90
7030;DHT22;3556;53.500;10.176;2022-07-06T03:57:15;14.30;99.90
7030;DHT22;3556;53.500;10.176;2022-07-06T03:59:42;14.30;99.90
7030;DHT22;3556;53.500;10.176;2022-07-06T04:02:08;14.30;99.90
7030;DHT22;3556;53.500;10.176;2022-07-06T04:04:34;14.30;99.90
7030;DHT22;3556;53.500;10.176;2022-07-06T04:06:59;14.30;99.90
7030;DHT22;3556;53.500;10.176;2022-07-06T04:09:25;14.30;99.90
7030;DHT22;3556;53.500;10.176;2022-07-06T04:11:51;14.30;99.90
7030;DHT22;3556;53.500;10.176;2022-07-06T04:14:17;14.30;99.90
7030;DHT22;3556;53.500;10.176;2022-07-06T04:16:43;14.30;99.90
7030;DHT22;3556;53.500;10.176;2022-07-06T04:19:09;14.30;99.90
7030;DHT22;3556;53.500;10.176;2022-07-06T04:21:35;14.40;99.90
7030;DHT22;3556;53.500;10.176;2022-07-06T04:24:01;14.40;99.90
7030;DHT22;3556;53.500;10.176;2022-07-06T04:26:27;14.40;99.90
7030;DHT22;3556;53.500;10.176;2022-07-06T04:28:52;14.40;99.90
7030;DHT22;3556;53.500;10.176;2022-07-06T04:31:18;14.40;99.90
7030;DHT22;3556;53.500;10.176;2022-07-06T04:33:44;14.40;99.90
7030;DHT22;3556;53.500;10.176;2022-07-06T04:36:10;14.40;99.90
7030;DHT22;3556;53.500;10.176;2022-07-06T04:38:36;14.40;99.90
7030;DHT22;3556;53.500;10.176;2022-07-06T04:41:02;14.40;99.90
7030;DHT22;3556;53.500;10.176;2022-07-06T04:43:28;14.40;99.90
7030;DHT22;3556;53.500;10.176;2022-07-06T04:45:53;14.40;99.90
7030;DHT22;3556;53.500;10.176;2022-07-06T04:48:19;14.40;99.90
7030;DHT22;3556;53.500;10.176;2022-07-06T04:50:44;14.50;99.90
7030;DHT22;3556;53.500;10.176;2022-07-06T04:53:10;14.50;99.90
7030;DHT22;3556;53.500;10.176;2022-07-06T04:55:36;14.50;99.90
7030;DHT22;3556;53.500;10.176;2022-07-06T04:58:01;14.60;99.90
7030;DHT22;3556;53.500;10.176;2022-07-06T05:00:27;14.60;99.90
7030;DHT22;3556;53.500;10.176;2022-07-06T05:02:53;14.70;99.90
7030;DHT22;3556;53.500;10.176;2022-07-06T05:05:18;14.80;99.90
7030;DHT22;3556;53.500;10.176;2022-07-06T05:07:44;14.80;99.90
7030;DHT22;3556;53.500;10.176;2022-07-06T05:10:11;14.90;99.90
7030;DHT22;3556;53.500;10.176;2022-07-06T05:12:38;15.00;99.90
7030;DHT22;3556;53.500;10.176;2022-07-06T05:15:04;15.00;99.90
7030;DHT22;3556;53.500;10.176;2022-07-06T05:17:30;15.00;99.90
7030;DHT22;3556;53.500;10.176;2022-07-06T05:19:55;15.10;99.90
7030;DHT22;3556;53.500;10.176;2022-07-06T05:22:21;15.10;99.90
7030;DHT22;3556;53.500;10.176;2022-07-06T05:24:47;15.10;99.90
7030;DHT22;3556;53.500;10.176;2022-07-06T05:27:12;15.10;99.90
7030;DHT22;3556;53.500;10.176;2022-07-06T05:29:38;15.20;99.90
7030;DHT22;3556;53.500;10.176;2022-07-06T05:32:04;15.20;99.90
7030;DHT22;3556;53.500;10.176;2022-07-06T05:34:30;15.20;99.90
7030;DHT22;3556;53.500;10.176;2022-07-06T05:36:55;15.20;99.90
7030;DHT22;3556;53.500;10.176;2022-07-06T05:39:21;15.30;99.90
7030;DHT22;3556;53.500;10.176;2022-07-06T05:41:48;15.30;99.90
7030;DHT22;3556;53.500;10.176;2022-07-06T05:44:14;15.30;99.90
7030;DHT22;3556;53.500;10.176;2022-07-06T05:46:40;15.30;99.90
7030;DHT22;3556;53.500;10.176;2022-07-06T05:49:06;15.30;99.90
7030;DHT22;3556;53.500;10.176;2022-07-06T05:51:50;15.30;99.90
7030;DHT22;3556;53.500;10.176;2022-07-06T05:54:16;15.30;99.90
7030;DHT22;3556;53.500;10.176;2022-07-06T05:56:41;15.30;99.90
7030;DHT22;3556;53.500;10.176;2022-07-06T05:59:07;15.40;99.90
7030;DHT22;3556;53.500;10.176;2022-07-06T06:01:33;15.40;99.90
7030;DHT22;3556;53.500;10.176;2022-07-06T06:03:58;15.40;99.90
7030;DHT22;3556;53.500;10.176;2022-07-06T06:06:25;15.50;99.90
7030;DHT22;3556;53.500;10.176;2022-07-06T06:08:51;15.60;99.90
7030;DHT22;3556;53.500;10.176;2022-07-06T06:11:17;15.60;99.90
7030;DHT22;3556;53.500;10.176;2022-07-06T06:13:43;15.70;99.90
7030;DHT22;3556;53.500;10.176;2022-07-06T06:16:09;15.70;99.90
7030;DHT22;3556;53.500;10.176;2022-07-06T06:18:34;15.70;99.90
7030;DHT22;3556;53.500;10.176;2022-07-06T06:21:00;15.80;99.90
7030;DHT22;3556;53.500;10.176;2022-07-06T06:23:26;15.90;99.90
7030;DHT22;3556;53.500;10.176;2022-07-06T06:25:51;15.90;99.90
7030;DHT22;3556;53.500;10.176;2022-07-06T06:28:17;16.00;99.90
7030;DHT22;3556;53.500;10.176;2022-07-06T06:30:43;15.90;99.90
7030;DHT22;3556;53.500;10.176;2022-07-06T06:33:13;15.90;99.90
7030;DHT22;3556;53.500;10.176;2022-07-06T06:35:47;15.80;99.90
7030;DHT22;3556;53.500;10.176;2022-07-06T06:38:14;15.80;99.90
7030;DHT22;3556;53.500;10.176;2022-07-06T06:40:39;15.80;99.90
7030;DHT22;3556;53.500;10.176;2022-07-06T06:43:05;15.80;99.90
7030;DHT22;3556;53.500;10.176;2022-07-06T06:45:31;15.80;99.90
7030;DHT22;3556;53.500;10.176;2022-07-06T06:47:57;15.90;99.90
7030;DHT22;3556;53.500;10.176;2022-07-06T06:50:22;15.80;99.90
7030;DHT22;3556;53.500;10.176;2022-07-06T06:52:49;15.80;99.90
7030;DHT22;3556;53.500;10.176;2022-07-06T06:55:16;15.80;99.90
7030;DHT22;3556;53.500;10.176;2022-07-06T06:57:42;15.80;99.90
7030;DHT22;3556;53.500;10.176;2022-07-06T07:00:08;15.80;99.90
7030;DHT22;3556;53.500;10.176;2022-07-06T07:02:34;15.90;99.90
7030;DHT22;3556;53.500;10.176;2022-07-06T07:04:59;16.00;99.90
7030;DHT22;3556;53.500;10.176;2022-07-06T07:07:25;16.10;99.90
7030;DHT22;3556;53.500;10.176;2022-07-06T07:09:51;16.30;99.90
7030;DHT22;3556;53.500;10.176;2022-07-06T07:12:16;16.40;99.90
7030;DHT22;3556;53.500;10.176;2022-07-06T07:14:43;16.50;99.90
7030;DHT22;3556;53.500;10.176;2022-07-06T07:17:09;16.60;99.90
7030;DHT22;3556;53.500;10.176;2022-07-06T07:19:35;16.60;99.90
7030;DHT22;3556;53.500;10.176;2022-07-06T07:22:01;16.70;99.90
7030;DHT22;3556;53.500;10.176;2022-07-06T07:24:27;16.80;99.90
7030;DHT22;3556;53.500;10.176;2022-07-06T07:26:52;16.90;99.90
7030;DHT22;3556;53.500;10.176;2022-07-06T07:29:18;16.90;99.90
7030;DHT22;3556;53.500;10.176;2022-07-06T07:31:44;16.90;99.90
7030;DHT22;3556;53.500;10.176;2022-07-06T07:34:09;16.90;99.90
7030;DHT22;3556;53.500;10.176;2022-07-06T07:36:35;16.90;99.90
7030;DHT22;3556;53.500;10.176;2022-07-06T07:39:01;16.90;99.90
7030;DHT22;3556;53.500;10.176;2022-07-06T07:41:27;17.00;99.90
7030;DHT22;3556;53.500;10.176;2022-07-06T07:43:52;17.00;99.90
7030;DHT22;3556;53.500;10.176;2022-07-06T07:46:18;17.10;99.90
7030;DHT22;3556;53.500;10.176;2022-07-06T07:48:44;17.20;99.90
7030;DHT22;3556;53.500;10.176;2022-07-06T07:51:09;17.20;99.90
7030;DHT22;3556;53.500;10.176;2022-07-06T07:53:35;17.20;99.90
7030;DHT22;3556;53.500;10.176;2022-07-06T07:56:00;17.20;99.90
7030;DHT22;3556;53.500;10.176;2022-07-06T07:58:26;17.30;99.90
7030;DHT22;3556;53.500;10.176;2022-07-06T08:00:52;17.30;99.90
7030;DHT22;3556;53.500;10.176;2022-07-06T08:03:18;17.20;99.90
7030;DHT22;3556;53.500;10.176;2022-07-06T08:05:43;17.10;99.90
7030;DHT22;3556;53.500;10.176;2022-07-06T08:08:09;17.10;99.90
7030;DHT22;3556;53.500;10.176;2022-07-06T08:10:35;17.00;99.90
7030;DHT22;3556;53.500;10.176;2022-07-06T08:13:00;17.00;99.90
7030;DHT22;3556;53.500;10.176;2022-07-06T08:15:26;17.00;99.90
7030;DHT22;3556;53.500;10.176;2022-07-06T08:17:52;16.90;99.90
7030;DHT22;3556;53.500;10.176;2022-07-06T08:20:18;16.90;99.90
7030;DHT22;3556;53.500;10.176;2022-07-06T08:22:43;16.80;99.90
7030;DHT22;3556;53.500;10.176;2022-07-06T08:25:09;16.80;99.90
7030;DHT22;3556;53.500;10.176;2022-07-06T08:27:35;16.70;99.90
7030;DHT22;3556;53.500;10.176;2022-07-06T08:30:02;16.70;99.90
7030;DHT22;3556;53.500;10.176;2022-07-06T08:32:28;16.60;99.90
7030;DHT22;3556;53.500;10.176;2022-07-06T08:34:53;16.60;99.90
7030;DHT22;3556;53.500;10.176;2022-07-06T08:37:19;16.60;99.90
7030;DHT22;3556;53.500;10.176;2022-07-06T08:39:45;16.50;99.90
7030;DHT22;3556;53.500;10.176;2022-07-06T08:42:11;16.60;99.90
7030;DHT22;3556;53.500;10.176;2022-07-06T08:44:37;16.50;99.90
7030;DHT22;3556;53.500;10.176;2022-07-06T08:47:05;16.50;99.90
7030;DHT22;3556;53.500;10.176;2022-07-06T08:49:34;16.40;99.90
7030;DHT22;3556;53.500;10.176;2022-07-06T08:52:02;16.40;99.90
7030;DHT22;3556;53.500;10.176;2022-07-06T08:54:29;16.40;99.90
7030;DHT22;3556;53.500;10.176;2022-07-06T08:56:54;16.20;99.90
7030;DHT22;3556;53.500;10.176;2022-07-06T08:59:20;16.10;99.90
7030;DHT22;3556;53.500;10.176;2022-07-06T09:01:46;16.00;99.90
7030;DHT22;3556;53.500;10.176;2022-07-06T09:04:15;15.90;99.90
7030;DHT22;3556;53.500;10.176;2022-07-06T09:06:43;15.80;99.90
7030;DHT22;3556;53.500;10.176;2022-07-06T09:09:12;15.70;99.90
7030;DHT22;3556;53.500;10.176;2022-07-06T09:11:42;15.60;99.90
7030;DHT22;3556;53.500;10.176;2022-07-06T09:14:09;15.60;99.90
7030;DHT22;3556;53.500;10.176;2022-07-06T09:16:34;15.70;99.90
7030;DHT22;3556;53.500;10.176;2022-07-06T09:19:01;15.80;99.90
7030;DHT22;3556;53.500;10.176;2022-07-06T09:21:31;15.90;99.90
7030;DHT22;3556;53.500;10.176;2022-07-06T09:24:02;15.90;99.90
7030;DHT22;3556;53.500;10.176;2022-07-06T09:26:28;16.00;99.90
7030;DHT22;3556;53.500;10.176;2022-07-06T09:28:58;16.10;99.90
7030;DHT22;3556;53.500;10.176;2022-07-06T09:31:25;16.10;99.90
7030;DHT22;3556;53.500;10.176;2022-07-06T09:33:54;16.30;99.90
7030;DHT22;3556;53.500;10.176;2022-07-06T09:39:27;16.60;99.90
7030;DHT22;3556;53.500;10.176;2022-07-06T09:44:31;16.70;99.90
7030;DHT22;3556;53.500;10.176;2022-07-06T09:46:59;16.80;99.90
7030;DHT22;3556;53.500;10.176;2022-07-06T09:49:25;16.80;99.90
7030;DHT22;3556;53.500;10.176;2022-07-06T09:51:54;16.70;99.90
7030;DHT22;3556;53.500;10.176;2022-07-06T09:54:19;16.60;99.90
7030;DHT22;3556;53.500;10.176;2022-07-06T09:56:47;16.60;99.90
7030;DHT22;3556;53.500;10.176;2022-07-06T09:59:26;16.50;99.90
7030;DHT22;3556;53.500;10.176;2022-07-06T10:01:54;16.50;99.90
7030;DHT22;3556;53.500;10.176;2022-07-06T10:04:22;16.50;99.90
7030;DHT22;3556;53.500;10.176;2022-07-06T10:06:48;16.60;99.90
7030;DHT22;3556;53.500;10.176;2022-07-06T10:09:15;16.70;99.90
7030;DHT22;3556;53.500;10.176;2022-07-06T10:11:44;16.90;99.90
7030;DHT22;3556;53.500;10.176;2022-07-06T10:14:12;17.20;99.90
7030;DHT22;3556;53.500;10.176;2022-07-06T10:16:40;17.40;99.90
7030;DHT22;3556;53.500;10.176;2022-07-06T10:19:08;17.40;99.90
7030;DHT22;3556;53.500;10.176;2022-07-06T10:21:36;17.40;99.90
7030;DHT22;3556;53.500;10.176;2022-07-06T10:24:04;17.40;99.90
7030;DHT22;3556;53.500;10.176;2022-07-06T10:26:31;17.40;99.90
7030;DHT22;3556;53.500;10.176;2022-07-06T10:29:02;17.50;99.90
7030;DHT22;3556;53.500;10.176;2022-07-06T10:31:28;17.70;99.90
7030;DHT22;3556;53.500;10.176;2022-07-06T10:33:56;17.90;99.90
7030;DHT22;3556;53.500;10.176;2022-07-06T10:36:23;18.40;99.90
7030;DHT22;3556;53.500;10.176;2022-07-06T10:38:51;18.80;99.90
7030;DHT22;3556;53.500;10.176;2022-07-06T10:41:17;19.10;99.90
7030;DHT22;3556;53.500;10.176;2022-07-06T10:43:47;19.10;99.90
7030;DHT22;3556;53.500;10.176;2022-07-06T10:46:15;19.00;99.90
7030;DHT22;3556;53.500;10.176;2022-07-06T10:48:45;18.80;99.90
7030;DHT22;3556;53.500;10.176;2022-07-06T10:51:14;18.60;99.90
7030;DHT22;3556;53.500;10.176;2022-07-06T10:53:55;18.40;99.90
7030;DHT22;3556;53.500;10.176;2022-07-06T10:56:32;18.20;99.90
7030;DHT22;3556;53.500;10.176;2022-07-06T10:59:09;18.00;99.90
7030;DHT22;3556;53.500;10.176;2022-07-06T11:01:35;17.90;99.90
7030;DHT22;3556;53.500;10.176;2022-07-06T11:06:30;17.50;99.90
7030;DHT22;3556;53.500;10.176;2022-07-06T11:09:08;17.40;99.90
7030;DHT22;3556;53.500;10.176;2022-07-06T11:16:29;17.00;99.90
7030;DHT22;3556;53.500;10.176;2022-07-06T11:18:59;16.90;99.90
7030;DHT22;3556;53.500;10.176;2022-07-06T11:24:02;16.70;99.90
7030;DHT22;3556;53.500;10.176;2022-07-06T11:26:30;16.60;99.90
7030;DHT22;3556;53.500;10.176;2022-07-06T11:28:56;16.60;99.90
7030;DHT22;3556;53.500;10.176;2022-07-06T11:31:23;16.50;99.90
7030;DHT22;3556;53.500;10.176;2022-07-06T11:33:49;16.50;99.90
7030;DHT22;3556;53.500;10.176;2022-07-06T11:36:22;16.50;99.90
7030;DHT22;3556;53.500;10.176;2022-07-06T11:38:49;16.60;99.90
7030;DHT22;3556;53.500;10.176;2022-07-06T11:41:17;16.60;99.90
7030;DHT22;3556;53.500;10.176;2022-07-06T11:43:44;16.60;99.90
7030;DHT22;3556;53.500;10.176;2022-07-06T11:46:30;16.70;99.90
7030;DHT22;3556;53.500;10.176;2022-07-06T11:48:58;16.70;99.90
7030;DHT22;3556;53.500;10.176;2022-07-06T11:51:25;16.90;99.90
7030;DHT22;3556;53.500;10.176;2022-07-06T11:53:55;17.00;99.90
7030;DHT22;3556;53.500;10.176;2022-07-06T11:56:20;17.10;99.90
7030;DHT22;3556;53.500;10.176;2022-07-06T11:58:59;17.40;99.90
7030;DHT22;3556;53.500;10.176;2022-07-06T12:01:27;17.60;99.90
7030;DHT22;3556;53.500;10.176;2022-07-06T12:03:58;17.80;99.90
7030;DHT22;3556;53.500;10.176;2022-07-06T12:06:25;18.20;99.90
7030;DHT22;3556;53.500;10.176;2022-07-06T12:08:56;18.50;99.90
7030;DHT22;3556;53.500;10.176;2022-07-06T12:11:27;18.80;99.90
7030;DHT22;3556;53.500;10.176;2022-07-06T12:13:55;18.90;99.90
7030;DHT22;3556;53.500;10.176;2022-07-06T12:16:21;18.90;99.90
7030;DHT22;3556;53.500;10.176;2022-07-06T12:18:49;18.90;99.90
7030;DHT22;3556;53.500;10.176;2022-07-06T12:21:19;19.00;99.90
7030;DHT22;3556;53.500;10.176;2022-07-06T12:23:51;19.30;99.90
7030;DHT22;3556;53.500;10.176;2022-07-06T12:26:20;19.70;99.90
7030;DHT22;3556;53.500;10.176;2022-07-06T12:28:58;20.30;99.90
7030;DHT22;3556;53.500;10.176;2022-07-06T12:31:38;20.80;99.90
7030;DHT22;3556;53.500;10.176;2022-07-06T12:34:04;21.40;99.90
7030;DHT22;3556;53.500;10.176;2022-07-06T12:36:31;21.90;99.90
7030;DHT22;3556;53.500;10.176;2022-07-06T12:38:57;22.30;99.90
7030;DHT22;3556;53.500;10.176;2022-07-06T12:41:31;22.70;99.10
7030;DHT22;3556;53.500;10.176;2022-07-06T12:44:06;22.70;96.30
7030;DHT22;3556;53.500;10.176;2022-07-06T12:49:01;22.00;95.30
7030;DHT22;3556;53.500;10.176;2022-07-06T12:51:27;21.60;94.70
7030;DHT22;3556;53.500;10.176;2022-07-06T12:54:11;21.40;94.80
7030;DHT22;3556;53.500;10.176;2022-07-06T12:56:37;21.40;94.40
7030;DHT22;3556;53.500;10.176;2022-07-06T12:59:02;21.40;94.90
7030;DHT22;3556;53.500;10.176;2022-07-06T13:01:28;21.40;94.70
7030;DHT22;3556;53.500;10.176;2022-07-06T13:03:55;21.40;94.30
7030;DHT22;3556;53.500;10.176;2022-07-06T13:06:30;21.30;94.70
7030;DHT22;3556;53.500;10.176;2022-07-06T13:08:56;21.30;94.80
7030;DHT22;3556;53.500;10.176;2022-07-06T13:11:21;21.20;95.20
7030;DHT22;3556;53.500;10.176;2022-07-06T13:13:47;21.50;96.90
7030;DHT22;3556;53.500;10.176;2022-07-06T13:16:13;21.80;95.00
7030;DHT22;3556;53.500;10.176;2022-07-06T13:18:38;21.90;94.40
7030;DHT22;3556;53.500;10.176;2022-07-06T13:21:04;21.90;94.20
7030;DHT22;3556;53.500;10.176;2022-07-06T13:23:29;21.60;94.30
7030;DHT22;3556;53.500;10.176;2022-07-06T13:25:55;21.60;94.80
7030;DHT22;3556;53.500;10.176;2022-07-06T13:28:21;21.60;93.80
7030;DHT22;3556;53.500;10.176;2022-07-06T13:30:46;21.60;93.70
7030;DHT22;3556;53.500;10.176;2022-07-06T13:33:12;21.70;93.80
7030;DHT22;3556;53.500;10.176;2022-07-06T13:35:38;21.50;93.30
7030;DHT22;3556;53.500;10.176;2022-07-06T13:38:03;21.20;94.10
7030;DHT22;3556;53.500;10.176;2022-07-06T13:40:29;21.00;93.50
7030;DHT22;3556;53.500;10.176;2022-07-06T13:42:54;20.80;93.50
7030;DHT22;3556;53.500;10.176;2022-07-06T13:45:20;20.60;93.80
7030;DHT22;3556;53.500;10.176;2022-07-06T13:47:46;20.70;93.40
7030;DHT22;3556;53.500;10.176;2022-07-06T13:50:12;21.20;93.80
7030;DHT22;3556;53.500;10.176;2022-07-06T13:52:37;21.80;93.10
7030;DHT22;3556;53.500;10.176;2022-07-06T13:55:04;22.40;91.60
7030;DHT22;3556;53.500;10.176;2022-07-06T13:57:31;22.90;91.40
7030;DHT22;3556;53.500;10.176;2022-07-06T13:59:57;23.20;90.20
7030;DHT22;3556;53.500;10.176;2022-07-06T14:02:22;23.50;90.80
7030;DHT22;3556;53.500;10.176;2022-07-06T14:04:48;23.60;88.50
7030;DHT22;3556;53.500;10.176;2022-07-06T14:07:14;23.90;88.40
7030;DHT22;3556;53.500;10.176;2022-07-06T14:09:39;23.80;86.50
7030;DHT22;3556;53.500;10.176;2022-07-06T14:12:05;23.30;85.90
7030;DHT22;3556;53.500;10.176;2022-07-06T14:14:31;22.90;87.60
7030;DHT22;3556;53.500;10.176;2022-07-06T14:16:56;22.60;88.50
7030;DHT22;3556;53.500;10.176;2022-07-06T14:19:23;22.40;90.50
7030;DHT22;3556;53.500;10.176;2022-07-06T14:21:49;22.60;90.10
7030;DHT22;3556;53.500;10.176;2022-07-06T14:24:15;22.80;89.40
7030;DHT22;3556;53.500;10.176;2022-07-06T14:26:41;22.90;87.30
7030;DHT22;3556;53.500;10.176;2022-07-06T14:29:06;22.90;84.50
7030;DHT22;3556;53.500;10.176;2022-07-06T14:31:32;23.00;85.80
7030;DHT22;3556;53.500;10.176;2022-07-06T14:33:57;22.70;83.00
7030;DHT22;3556;53.500;10.176;2022-07-06T14:36:23;22.70;84.00
7030;DHT22;3556;53.500;10.176;2022-07-06T14:38:49;22.60;83.30
7030;DHT22;3556;53.500;10.176;2022-07-06T14:41:14;22.40;82.30
7030;DHT22;3556;53.500;10.176;2022-07-06T14:43:40;22.20;86.20
7030;DHT22;3556;53.500;10.176;2022-07-06T14:46:06;22.20;84.40
7030;DHT22;3556;53.500;10.176;2022-07-06T14:48:32;22.30;86.20
7030;DHT22;3556;53.500;10.176;2022-07-06T14:50:57;22.30;84.90
7030;DHT22;3556;53.500;10.176;2022-07-06T14:53:23;22.30;84.50
7030;DHT22;3556;53.500;10.176;2022-07-06T14:55:49;22.10;84.00
7030;DHT22;3556;53.500;10.176;2022-07-06T14:58:15;22.00;84.70
7030;DHT22;3556;53.500;10.176;2022-07-06T15:00:44;21.80;84.90
7030;DHT22;3556;53.500;10.176;2022-07-06T15:03:10;21.70;84.60
7030;DHT22;3556;53.500;10.176;2022-07-06T15:05:36;21.40;85.40
7030;DHT22;3556;53.500;10.176;2022-07-06T15:08:02;21.50;88.50
7030;DHT22;3556;53.500;10.176;2022-07-06T15:10:28;21.60;87.70
7030;DHT22;3556;53.500;10.176;2022-07-06T15:12:54;21.80;87.20
7030;DHT22;3556;53.500;10.176;2022-07-06T15:15:19;21.90;86.10
7030;DHT22;3556;53.500;10.176;2022-07-06T15:17:45;22.00;85.60
7030;DHT22;3556;53.500;10.176;2022-07-06T15:20:11;22.00;86.10
7030;DHT22;3556;53.500;10.176;2022-07-06T15:22:37;22.00;85.80
7030;DHT22;3556;53.500;10.176;2022-07-06T15:25:03;21.90;86.40
7030;DHT22;3556;53.500;10.176;2022-07-06T15:27:29;21.70;83.90
7030;DHT22;3556;53.500;10.176;2022-07-06T15:29:55;21.50;84.50
7030;DHT22;3556;53.500;10.176;2022-07-06T15:32:21;21.60;88.70
7030;DHT22;3556;53.500;10.176;2022-07-06T15:34:48;21.70;86.80
7030;DHT22;3556;53.500;10.176;2022-07-06T15:37:13;21.80;87.50
7030;DHT22;3556;53.500;10.176;2022-07-06T15:39:39;21.70;86.80
7030;DHT22;3556;53.500;10.176;2022-07-06T15:42:05;21.50;83.30
7030;DHT22;3556;53.500;10.176;2022-07-06T15:44:31;21.20;83.60
7030;DHT22;3556;53.500;10.176;2022-07-06T15:46:59;21.10;86.80
7030;DHT22;3556;53.500;10.176;2022-07-06T15:49:28;21.00;86.40
7030;DHT22;3556;53.500;10.176;2022-07-06T15:51:53;20.90;87.10
7030;DHT22;3556;53.500;10.176;2022-07-06T15:54:19;20.70;86.70
7030;DHT22;3556;53.500;10.176;2022-07-06T15:56:45;20.60;86.00
7030;DHT22;3556;53.500;10.176;2022-07-06T15:59:10;20.40;86.30